createdAt,value
2019-02-12T00:00:13.825Z,70.57
2019-02-12T00:02:42.008Z,70.59
2019-02-12T00:05:10.199Z,70.44
2019-02-12T00:07:38.383Z,70.40
2019-02-12T00:10:06.950Z,70.41
2019-02-12T00:12:35.141Z,70.50
2019-02-12T00:15:03.712Z,70.47
2019-02-12T00:17:31.919Z,70.61
2019-02-12T00:20:00.144Z,70.80
2019-02-12T00:22:28.412Z,70.72
2019-02-12T00:24:56.591Z,70.56
2019-02-12T00:27:24.785Z,70.54
2019-02-12T00:29:52.966Z,70.51
2019-02-12T00:32:21.162Z,70.46
2019-02-12T00:34:49.343Z,70.28
2019-02-12T00:37:17.541Z,69.97
2019-02-12T00:39:45.728Z,69.63
2019-02-12T00:42:13.947Z,69.42
2019-02-12T00:44:42.126Z,69.22
2019-02-12T00:47:10.328Z,68.82
2019-02-12T00:49:38.516Z,68.62
2019-02-12T00:52:06.735Z,68.64
2019-02-12T00:54:34.944Z,68.57
2019-02-12T00:57:03.139Z,68.33
2019-02-12T00:59:31.328Z,68.12
2019-02-12T01:01:59.520Z,67.61
2019-02-12T01:04:27.724Z,67.19
2019-02-12T01:06:55.921Z,67.12
2019-02-12T01:09:24.127Z,67.11
2019-02-12T01:11:52.322Z,67.12
2019-02-12T01:14:20.501Z,66.99
2019-02-12T01:16:48.708Z,66.72
2019-02-12T01:19:16.895Z,66.46
2019-02-12T01:21:45.112Z,66.32
2019-02-12T01:24:13.296Z,66.32
2019-02-12T01:26:41.492Z,66.34
2019-02-12T01:29:09.680Z,66.34
2019-02-12T01:31:37.874Z,66.27
2019-02-12T01:34:06.081Z,66.60
2019-02-12T01:36:34.272Z,66.42
2019-02-12T01:39:02.462Z,66.63
2019-02-12T01:41:30.680Z,66.50
2019-02-12T01:43:58.909Z,66.41
2019-02-12T01:46:27.123Z,66.49
2019-02-12T01:48:55.316Z,66.34
2019-02-12T01:51:23.509Z,65.85
2019-02-12T01:53:51.687Z,65.92
2019-02-12T01:56:19.893Z,65.83
2019-02-12T01:58:48.076Z,65.54
2019-02-12T02:01:16.259Z,65.46
2019-02-12T02:03:44.462Z,65.26
2019-02-12T02:06:12.644Z,65.28
2019-02-12T02:08:40.857Z,65.52
2019-02-12T02:11:09.031Z,65.42
2019-02-12T02:13:37.222Z,65.60
2019-02-12T02:16:05.428Z,65.60
2019-02-12T02:18:33.674Z,65.76
2019-02-12T02:21:01.832Z,65.93
2019-02-12T02:23:30.025Z,66.17
2019-02-12T02:25:58.208Z,66.36
2019-02-12T02:28:26.401Z,66.70
2019-02-12T02:30:54.579Z,66.95
2019-02-12T02:33:22.803Z,67.31
2019-02-12T02:35:50.984Z,67.25
2019-02-12T02:38:19.176Z,67.25
2019-02-12T02:40:47.362Z,67.50
2019-02-12T02:43:15.562Z,67.77
2019-02-12T02:45:43.770Z,68.02
2019-02-12T02:48:11.966Z,68.22
2019-02-12T02:50:40.161Z,68.25
2019-02-12T02:53:08.367Z,68.41
2019-02-12T02:55:36.542Z,68.26
2019-02-12T02:58:04.738Z,68.37
2019-02-12T03:00:32.923Z,68.12
2019-02-12T03:03:01.119Z,67.75
2019-02-12T03:05:29.314Z,67.75
2019-02-12T03:07:57.512Z,67.76
2019-02-12T03:10:25.693Z,67.77
2019-02-12T03:12:53.900Z,67.64
2019-02-12T03:15:22.083Z,67.76
2019-02-12T03:17:50.280Z,68.02
2019-02-12T03:20:18.464Z,67.97
2019-02-12T03:22:46.657Z,67.76
2019-02-12T03:25:14.836Z,67.61
2019-02-12T03:27:43.028Z,67.70
2019-02-12T03:30:12.401Z,67.98
2019-02-12T03:32:40.934Z,68.02
2019-02-12T03:35:10.220Z,67.96
2019-02-12T03:37:38.416Z,67.83
2019-02-12T03:40:09.255Z,67.92
2019-02-12T03:42:37.430Z,67.92
2019-02-12T03:45:08.272Z,67.75
2019-02-12T03:47:36.469Z,67.81
2019-02-12T03:50:07.203Z,67.71
2019-02-12T03:52:35.393Z,67.64
2019-02-12T03:55:03.600Z,67.50
2019-02-12T03:57:31.808Z,67.35
2019-02-12T04:00:00.028Z,67.50
2019-02-12T04:02:28.233Z,67.64
2019-02-12T04:04:56.426Z,67.44
2019-02-12T04:07:24.635Z,67.46
2019-02-12T04:09:52.836Z,67.74
2019-02-12T04:12:21.024Z,68.17
2019-02-12T04:14:49.222Z,68.51
2019-02-12T04:17:17.419Z,68.88
2019-02-12T04:19:45.595Z,68.96
2019-02-12T04:22:22.321Z,69.27
2019-02-12T04:24:43.712Z,69.38
2019-02-12T04:27:11.922Z,69.51
2019-02-12T04:29:40.119Z,69.83
2019-02-12T04:32:08.296Z,69.92
2019-02-12T04:34:36.525Z,69.89
2019-02-12T04:37:04.702Z,70.02
2019-02-12T04:39:32.901Z,69.93
2019-02-12T04:42:01.078Z,69.84
2019-02-12T04:44:29.298Z,70.02
2019-02-12T04:46:57.478Z,70.14
2019-02-12T04:49:25.702Z,70.08
2019-02-12T04:51:53.909Z,70.08
2019-02-12T04:54:22.110Z,69.90
2019-02-12T04:56:50.330Z,69.79
2019-02-12T04:59:18.504Z,69.92
2019-02-12T05:01:46.711Z,69.75
2019-02-12T05:04:14.905Z,69.78
2019-02-12T05:06:43.097Z,69.69
2019-02-12T05:09:13.661Z,69.44
2019-02-12T05:11:44.772Z,69.62
2019-02-12T05:14:13.003Z,69.77
2019-02-12T05:16:41.199Z,69.80
2019-02-12T05:19:09.379Z,70.13
2019-02-12T05:21:37.573Z,70.28
2019-02-12T05:24:05.804Z,70.32
2019-02-12T05:26:33.986Z,70.53
2019-02-12T05:29:02.175Z,70.59
2019-02-12T05:31:30.375Z,70.51
2019-02-12T05:33:58.567Z,70.51
2019-02-12T05:36:26.780Z,70.43
2019-02-12T05:38:55.045Z,70.31
2019-02-12T05:41:23.260Z,70.06
2019-02-12T05:43:51.423Z,70.01
2019-02-12T05:46:19.648Z,69.97
2019-02-12T05:48:47.840Z,69.77
2019-02-12T05:51:16.031Z,69.65
2019-02-12T05:53:44.243Z,69.45
2019-02-12T05:56:12.442Z,69.45
2019-02-12T05:58:40.653Z,69.30
2019-02-12T06:01:08.844Z,69.39
2019-02-12T06:03:37.027Z,69.47
2019-02-12T06:06:05.246Z,69.35
2019-02-12T06:08:33.433Z,69.34
2019-02-12T06:11:01.659Z,69.23
2019-02-12T06:13:29.844Z,69.12
2019-02-12T06:15:58.078Z,69.09
2019-02-12T06:18:26.250Z,69.24
2019-02-12T06:20:54.486Z,69.25
2019-02-12T06:23:22.674Z,69.42
2019-02-12T06:25:50.873Z,69.54
2019-02-12T06:28:19.075Z,69.68
2019-02-12T06:30:47.280Z,69.77
2019-02-12T06:33:15.462Z,69.88
2019-02-12T06:35:43.650Z,69.99
2019-02-12T06:38:12.014Z,73.76
2019-02-12T06:40:40.197Z,72.06
2019-02-12T06:43:08.461Z,73.84
2019-02-12T06:45:36.651Z,76.30
2019-02-12T06:48:04.830Z,75.04
2019-02-12T06:50:33.035Z,76.07
2019-02-12T06:53:01.244Z,73.02
2019-02-12T06:55:29.420Z,73.91
2019-02-12T06:57:57.622Z,73.83
2019-02-12T07:00:25.797Z,70.65
2019-02-12T07:03:13.988Z,74.04
2019-02-12T07:06:00.590Z,73.79
2019-02-12T07:08:40.780Z,70.67
2019-02-12T07:11:27.211Z,67.64
2019-02-12T07:14:10.215Z,67.02
2019-02-12T07:17:13.747Z,67.47
2019-02-12T07:19:47.700Z,68.07
2019-02-12T07:22:47.822Z,68.13
2019-02-12T07:25:25.076Z,68.92
2019-02-12T07:28:08.424Z,69.08
2019-02-12T07:31:08.792Z,69.45
2019-02-12T07:33:55.255Z,69.63
2019-02-12T07:36:40.749Z,69.43
2019-02-12T07:39:38.526Z,69.74
2019-02-12T07:42:31.218Z,70.13
2019-02-12T07:45:02.671Z,69.98
2019-02-12T07:47:50.380Z,69.87
2019-02-12T07:50:30.503Z,70.05
2019-02-12T07:53:10.939Z,70.19
2019-02-12T07:55:58.649Z,69.62
2019-02-12T07:58:46.497Z,69.12
2019-02-12T08:01:23.681Z,68.83
2019-02-12T08:04:03.655Z,68.29
2019-02-12T08:06:54.271Z,67.68
2019-02-12T08:10:00.749Z,67.69
2019-02-12T08:12:41.098Z,67.42
2019-02-12T08:15:15.305Z,66.71
2019-02-12T08:18:04.850Z,66.38
2019-02-12T08:20:55.778Z,66.66
2019-02-12T08:23:41.255Z,65.93
2019-02-12T08:26:17.627Z,65.86
2019-02-12T08:29:10.261Z,65.48
2019-02-12T08:31:47.275Z,64.39
2019-02-12T08:34:24.277Z,64.65
2019-02-12T08:36:55.726Z,63.42
2019-02-12T08:39:33.087Z,63.02
2019-02-12T08:42:15.911Z,62.04
2019-02-12T08:44:50.089Z,62.29
2019-02-12T08:47:40.111Z,61.82
2019-02-12T08:50:23.168Z,61.86
2019-02-12T08:53:00.425Z,61.53
2019-02-12T08:55:49.726Z,60.76
2019-02-12T08:58:24.149Z,60.14
2019-02-12T09:00:58.583Z,59.34
2019-02-12T09:03:42.015Z,58.73
2019-02-12T09:06:13.480Z,58.91
2019-02-12T09:08:50.443Z,57.39
2019-02-12T09:11:36.916Z,57.75
2019-02-12T09:14:13.627Z,57.46
2019-02-12T09:17:06.302Z,57.64
2019-02-12T09:19:55.637Z,58.28
2019-02-12T09:22:38.970Z,58.18
2019-02-12T09:25:10.449Z,57.95
2019-02-12T09:28:02.935Z,57.85
2019-02-12T09:30:49.453Z,57.42
2019-02-12T09:33:46.502Z,57.87
2019-02-12T09:36:52.765Z,57.55
2019-02-12T09:39:26.979Z,56.76
2019-02-12T09:42:09.756Z,56.21
2019-02-12T09:44:57.990Z,56.14
2019-02-12T09:47:46.492Z,57.08
2019-02-12T09:50:32.452Z,58.10
2019-02-12T09:53:26.342Z,59.75
2019-02-12T09:56:26.755Z,61.95
2019-02-12T09:59:09.959Z,63.37
2019-02-12T10:01:44.064Z,64.01
2019-02-12T10:04:18.188Z,64.15
2019-02-12T10:06:49.644Z,65.26
2019-02-12T10:09:33.284Z,65.57
2019-02-12T10:12:07.737Z,65.54
2019-02-12T10:14:42.020Z,65.52
2019-02-12T10:17:16.124Z,65.79
2019-02-12T10:20:02.577Z,65.77
2019-02-12T10:22:43.132Z,64.98
2019-02-12T10:25:14.724Z,64.40
2019-02-12T10:28:02.732Z,64.42
2019-02-12T10:30:36.707Z,63.63
2019-02-12T10:33:04.928Z,62.44
2019-02-12T10:35:33.139Z,61.96
2019-02-12T10:38:01.575Z,60.87
2019-02-12T10:40:29.740Z,60.82
2019-02-12T10:42:57.961Z,60.24
2019-02-12T10:45:26.187Z,59.04
2019-02-12T10:47:54.397Z,57.29
2019-02-12T10:50:22.581Z,56.95
2019-02-12T10:52:50.928Z,56.68
2019-02-12T10:55:19.147Z,54.78
2019-02-12T10:57:47.339Z,53.16
2019-02-12T11:00:15.543Z,53.06
2019-02-12T11:02:43.754Z,56.24
2019-02-12T11:05:11.940Z,52.86
2019-02-12T11:07:40.168Z,57.13
2019-02-12T11:10:11.703Z,53.91
2019-02-12T11:12:39.913Z,51.61
2019-02-12T11:15:09.658Z,50.86
2019-02-12T11:17:38.087Z,51.52
2019-02-12T11:20:09.457Z,50.46
2019-02-12T11:22:37.866Z,50.40
2019-02-12T11:25:10.190Z,48.37
2019-02-12T11:27:38.396Z,48.34
2019-02-12T11:30:12.643Z,48.40
2019-02-12T11:32:40.838Z,48.91
2019-02-12T11:35:12.478Z,48.45
2019-02-12T11:37:40.685Z,48.64
2019-02-12T11:40:13.523Z,46.98
2019-02-12T11:42:41.777Z,46.03
2019-02-12T11:45:12.427Z,46.94
2019-02-12T11:47:40.718Z,46.57
2019-02-12T11:50:09.944Z,47.40
2019-02-12T11:52:38.166Z,47.61
2019-02-12T11:55:09.256Z,46.67
2019-02-12T11:57:37.469Z,47.18
2019-02-12T12:00:09.275Z,48.26
2019-02-12T12:02:42.097Z,48.12
2019-02-12T12:05:08.304Z,48.27
2019-02-12T12:07:36.514Z,47.42
2019-02-12T12:10:08.632Z,47.32
2019-02-12T12:12:36.835Z,47.82
2019-02-12T12:15:08.062Z,47.70
2019-02-12T12:17:36.268Z,47.43
2019-02-12T12:20:07.619Z,47.46
2019-02-12T12:22:35.812Z,47.40
2019-02-12T12:25:05.461Z,47.65
2019-02-12T12:27:33.673Z,47.44
2019-02-12T12:30:01.878Z,47.11
2019-02-12T12:32:30.054Z,46.18
2019-02-12T12:34:59.206Z,46.09
2019-02-12T12:37:27.542Z,44.99
2019-02-12T12:39:55.739Z,44.65
2019-02-12T12:42:23.924Z,45.06
2019-02-12T12:44:52.353Z,45.57
2019-02-12T12:47:20.588Z,44.66
2019-02-12T12:49:48.792Z,44.53
2019-02-12T12:52:16.996Z,44.99
2019-02-12T12:54:45.186Z,45.22
2019-02-12T12:57:13.367Z,44.93
2019-02-12T12:59:41.566Z,45.39
2019-02-12T13:02:09.750Z,46.05
2019-02-12T13:04:37.948Z,45.76
2019-02-12T13:07:06.138Z,46.25
2019-02-12T13:09:34.342Z,46.31
2019-02-12T13:12:02.593Z,46.79
2019-02-12T13:14:31.158Z,46.94
2019-02-12T13:16:59.385Z,47.22
2019-02-12T13:19:27.581Z,47.32
2019-02-12T13:21:55.797Z,46.62
2019-02-12T13:24:23.990Z,46.05
2019-02-12T13:26:52.184Z,45.51
2019-02-12T13:29:20.382Z,45.74
2019-02-12T13:31:48.615Z,44.86
2019-02-12T13:34:16.814Z,44.75
2019-02-12T13:36:45.004Z,45.42
2019-02-12T13:39:13.226Z,45.76
2019-02-12T13:41:41.430Z,46.16
2019-02-12T13:44:09.615Z,47.30
2019-02-12T13:46:37.823Z,47.78
2019-02-12T13:49:06.010Z,48.09
2019-02-12T13:51:34.209Z,48.05
2019-02-12T13:54:02.399Z,48.13
2019-02-12T13:56:30.599Z,48.24
2019-02-12T13:58:58.788Z,48.23
2019-02-12T14:01:27.018Z,48.36
2019-02-12T14:03:55.200Z,48.55
2019-02-12T14:06:23.406Z,48.80
2019-02-12T14:08:51.615Z,49.17
2019-02-12T14:11:19.814Z,49.19
2019-02-12T14:13:48.004Z,48.87
2019-02-12T14:16:16.213Z,48.84
2019-02-12T14:18:44.401Z,48.94
2019-02-12T14:21:12.629Z,49.02
2019-02-12T14:23:40.818Z,49.14
2019-02-12T14:26:09.024Z,48.55
2019-02-12T14:28:37.214Z,48.01
2019-02-12T14:31:05.414Z,48.22
2019-02-12T14:33:33.619Z,48.18
2019-02-12T14:36:01.817Z,48.90
2019-02-12T14:38:29.999Z,48.31
2019-02-12T14:40:58.209Z,48.51
2019-02-12T14:43:26.391Z,48.52
2019-02-12T14:45:54.589Z,48.94
2019-02-12T14:48:22.774Z,49.36
2019-02-12T14:50:50.998Z,49.73
2019-02-12T14:53:19.178Z,49.79
2019-02-12T14:55:47.410Z,49.73
2019-02-12T14:58:15.611Z,50.06
2019-02-12T15:00:43.804Z,50.38
2019-02-12T15:03:11.985Z,51.39
2019-02-12T15:05:40.206Z,51.94
2019-02-12T15:08:08.390Z,51.70
2019-02-12T15:10:36.590Z,52.32
2019-02-12T15:13:04.771Z,52.70
2019-02-12T15:15:32.957Z,52.59
2019-02-12T15:18:01.181Z,52.86
2019-02-12T15:20:29.371Z,53.24
2019-02-12T15:22:57.572Z,53.24
2019-02-12T15:25:25.756Z,53.38
2019-02-12T15:27:53.958Z,53.60
2019-02-12T15:30:22.130Z,53.84
2019-02-12T15:32:50.323Z,54.36
2019-02-12T15:35:18.522Z,54.51
2019-02-12T15:37:46.737Z,54.28
2019-02-12T15:40:17.518Z,54.33
2019-02-12T15:42:45.791Z,54.62
2019-02-12T15:45:24.476Z,54.60
2019-02-12T15:47:52.671Z,55.25
2019-02-12T15:50:20.856Z,54.84
2019-02-12T15:52:49.077Z,55.06
2019-02-12T15:55:17.254Z,55.06
2019-02-12T15:57:46.057Z,55.14
2019-02-12T16:00:18.604Z,55.18
2019-02-12T16:02:46.723Z,55.24
2019-02-12T16:05:14.978Z,55.18
2019-02-12T16:07:45.200Z,55.14
2019-02-12T16:10:19.609Z,55.33
2019-02-12T16:12:48.938Z,55.34
2019-02-12T16:15:21.160Z,55.40
2019-02-12T16:17:48.279Z,55.54
2019-02-12T16:20:16.541Z,55.74
2019-02-12T16:22:44.760Z,55.93
2019-02-12T16:25:15.373Z,55.82
2019-02-12T16:27:43.772Z,55.97
2019-02-12T16:30:22.386Z,55.96
2019-02-12T16:32:50.582Z,56.01
2019-02-12T16:35:18.840Z,56.05
2019-02-12T16:37:47.028Z,56.46
2019-02-12T16:40:16.648Z,56.50
2019-02-12T16:42:44.842Z,56.44
2019-02-12T16:45:22.079Z,56.38
2019-02-12T16:47:50.275Z,56.49
2019-02-12T16:50:18.557Z,56.57
2019-02-12T16:52:46.800Z,56.71
2019-02-12T16:55:14.999Z,56.90
2019-02-12T16:57:43.235Z,57.17
2019-02-12T17:00:13.882Z,57.56
2019-02-12T17:02:42.083Z,57.61
2019-02-12T17:05:12.005Z,57.82
2019-02-12T17:07:40.221Z,57.99
2019-02-12T17:10:10.046Z,58.22
2019-02-12T17:12:38.238Z,58.32
2019-02-12T17:15:11.126Z,58.79
2019-02-12T17:17:39.328Z,58.64
2019-02-12T17:20:10.850Z,58.66
2019-02-12T17:22:39.059Z,58.98
2019-02-12T17:25:09.586Z,58.95
2019-02-12T17:27:37.810Z,59.09
2019-02-12T17:30:11.755Z,59.40
2019-02-12T17:32:40.328Z,59.39
2019-02-12T17:35:09.248Z,59.40
2019-02-12T17:37:37.445Z,59.77
2019-02-12T17:40:08.855Z,59.73
2019-02-12T17:42:37.040Z,59.77
2019-02-12T17:45:11.225Z,59.83
2019-02-12T17:47:39.407Z,59.96
2019-02-12T17:50:10.313Z,60.08
2019-02-12T17:52:38.515Z,60.23
2019-02-12T17:55:07.970Z,60.29
2019-02-12T17:57:36.154Z,60.46
2019-02-12T18:00:11.644Z,60.55
2019-02-12T18:02:41.576Z,60.95
2019-02-12T18:05:09.898Z,61.12
2019-02-12T18:07:38.091Z,61.34
2019-02-12T18:10:08.712Z,61.44
2019-02-12T18:12:36.888Z,61.77
2019-02-12T18:15:07.724Z,62.06
2019-02-12T18:17:35.905Z,62.56
2019-02-12T18:20:05.842Z,62.27
2019-02-12T18:22:34.030Z,63.01
2019-02-12T18:25:02.266Z,62.81
2019-02-12T18:27:30.448Z,63.47
2019-02-12T18:29:58.655Z,63.74
2019-02-12T18:32:26.893Z,64.14
2019-02-12T18:34:55.076Z,64.04
2019-02-12T18:37:23.256Z,64.42
2019-02-12T18:39:51.459Z,64.74
2019-02-12T18:42:19.897Z,64.79
2019-02-12T18:44:48.058Z,64.98
2019-02-12T18:47:16.250Z,65.29
2019-02-12T18:49:44.445Z,65.44
2019-02-12T18:52:12.650Z,65.90
2019-02-12T18:54:40.853Z,65.59
2019-02-12T18:57:09.058Z,65.71
2019-02-12T18:59:37.351Z,65.74
2019-02-12T19:02:05.573Z,66.18
2019-02-12T19:04:33.809Z,66.27
2019-02-12T19:07:02.004Z,66.23
2019-02-12T19:09:30.194Z,66.35
2019-02-12T19:11:58.382Z,66.17
2019-02-12T19:14:26.738Z,66.39
2019-02-12T19:16:54.977Z,66.37
2019-02-12T19:19:23.197Z,66.74
2019-02-12T19:21:51.474Z,66.89
2019-02-12T19:24:19.660Z,66.91
2019-02-12T19:26:49.878Z,67.05
2019-02-12T19:29:17.785Z,66.89
2019-02-12T19:31:45.991Z,67.21
2019-02-12T19:34:14.171Z,67.32
2019-02-12T19:36:42.383Z,67.32
2019-02-12T19:39:10.593Z,67.39
2019-02-12T19:41:38.812Z,67.50
2019-02-12T19:44:07.007Z,67.48
2019-02-12T19:46:35.209Z,67.77
2019-02-12T19:49:03.400Z,67.79
2019-02-12T19:51:31.600Z,67.96
2019-02-12T19:53:59.861Z,68.12
2019-02-12T19:56:28.064Z,68.28
2019-02-12T19:58:56.287Z,68.62
2019-02-12T20:01:24.487Z,68.87
2019-02-12T20:03:52.673Z,68.90
2019-02-12T20:06:20.865Z,69.15
2019-02-12T20:08:49.071Z,69.12
2019-02-12T20:11:17.269Z,69.11
2019-02-12T20:13:45.467Z,69.31
2019-02-12T20:16:13.699Z,69.53
2019-02-12T20:18:42.086Z,69.62
2019-02-12T20:21:10.265Z,69.54
2019-02-12T20:23:38.484Z,69.79
2019-02-12T20:26:06.670Z,69.76
2019-02-12T20:28:34.896Z,69.63
2019-02-12T20:31:03.123Z,69.91
2019-02-12T20:33:31.334Z,69.94
2019-02-12T20:35:59.523Z,69.98
2019-02-12T20:38:27.739Z,70.15
2019-02-12T20:40:55.954Z,70.12
2019-02-12T20:43:24.208Z,70.41
2019-02-12T20:45:52.372Z,70.66
2019-02-12T20:48:20.582Z,70.70
2019-02-12T20:50:48.788Z,70.80
2019-02-12T20:53:16.981Z,70.71
2019-02-12T20:55:45.173Z,70.70
2019-02-12T20:58:13.409Z,70.57
2019-02-12T21:00:41.621Z,70.64
2019-02-12T21:03:11.130Z,70.81
2019-02-12T21:05:39.401Z,70.83
2019-02-12T21:08:07.611Z,70.87
2019-02-12T21:10:35.796Z,71.12
2019-02-12T21:13:04.002Z,71.20
2019-02-12T21:15:32.261Z,71.10
2019-02-12T21:18:00.479Z,71.22
2019-02-12T21:20:28.676Z,71.16
2019-02-12T21:22:57.287Z,71.33
2019-02-12T21:25:25.487Z,71.28
2019-02-12T21:27:53.767Z,71.14
2019-02-12T21:30:30.157Z,71.12
2019-02-12T21:32:58.350Z,71.05
2019-02-12T21:35:26.566Z,71.11
2019-02-12T21:37:54.779Z,71.14
2019-02-12T21:40:24.630Z,71.12
2019-02-12T21:42:52.812Z,71.18
2019-02-12T21:45:21.019Z,71.14
2019-02-12T21:47:49.232Z,71.09
2019-02-12T21:50:17.440Z,71.17
2019-02-12T21:52:45.615Z,71.32
2019-02-12T21:55:19.242Z,71.28
2019-02-12T21:57:47.417Z,71.32
2019-02-12T22:00:20.142Z,71.23
2019-02-12T22:02:48.328Z,71.24
2019-02-12T22:05:17.183Z,71.34
2019-02-12T22:07:45.370Z,71.48
2019-02-12T22:10:28.363Z,71.44
2019-02-12T22:12:56.575Z,71.48
2019-02-12T22:15:24.777Z,71.58
2019-02-12T22:17:52.974Z,71.51
2019-02-12T22:20:22.639Z,71.64
2019-02-12T22:22:50.856Z,71.72
2019-02-12T22:25:19.056Z,71.82
2019-02-12T22:27:47.249Z,72.45
2019-02-12T22:30:18.253Z,74.20
2019-02-12T22:32:46.510Z,73.23
2019-02-12T22:35:14.797Z,73.98
2019-02-12T22:37:42.990Z,73.71
2019-02-12T22:40:15.353Z,74.51
2019-02-12T22:42:43.567Z,71.47
2019-02-12T22:45:25.057Z,70.83
2019-02-12T22:47:53.248Z,70.97
2019-02-12T22:50:21.466Z,71.01
2019-02-12T22:52:49.666Z,71.32
2019-02-12T22:55:17.883Z,71.39
2019-02-12T22:57:49.168Z,71.54
2019-02-12T23:00:26.907Z,71.64
2019-02-12T23:02:55.124Z,71.68
2019-02-12T23:05:23.317Z,71.69
2019-02-12T23:07:51.524Z,71.86
2019-02-12T23:10:19.751Z,71.81
2019-02-12T23:12:47.982Z,71.76
2019-02-12T23:15:16.190Z,71.79
2019-02-12T23:17:44.390Z,71.80
2019-02-12T23:20:12.582Z,71.83
2019-02-12T23:22:40.789Z,71.77
2019-02-12T23:25:08.977Z,71.80
2019-02-12T23:27:37.188Z,71.88
2019-02-12T23:30:08.387Z,71.92
2019-02-12T23:32:36.618Z,71.94
2019-02-12T23:35:05.677Z,71.90
2019-02-12T23:37:33.879Z,71.86
2019-02-12T23:40:02.064Z,71.76
2019-02-12T23:42:30.299Z,71.83
2019-02-12T23:44:58.517Z,71.85
2019-02-12T23:47:26.734Z,71.76
2019-02-12T23:49:54.928Z,71.82
2019-02-12T23:52:23.204Z,71.93
2019-02-12T23:54:51.414Z,72.04
2019-02-12T23:57:19.624Z,72.05
2019-02-12T23:59:47.839Z,72.02
